createdAt,value
2022-08-28T00:00:32.930Z,20.00
2022-08-28T00:03:02.820Z,19.70
2022-08-28T00:05:33.410Z,19.80
2022-08-28T00:08:01.890Z,19.80
2022-08-28T00:10:30.301Z,19.90
2022-08-28T00:12:58.825Z,19.70
2022-08-28T00:15:29.696Z,19.60
2022-08-28T00:17:59.028Z,19.40
2022-08-28T00:20:29.793Z,19.20
2022-08-28T00:22:59.615Z,19.00
2022-08-28T00:25:30.316Z,19.00
2022-08-28T00:28:01.066Z,19.10
2022-08-28T00:30:36.889Z,18.90
2022-08-28T00:33:08.176Z,18.90
2022-08-28T00:35:41.172Z,18.70
2022-08-28T00:38:10.053Z,18.80
2022-08-28T00:40:39.499Z,19.00
2022-08-28T00:43:10.139Z,19.20
2022-08-28T00:45:40.072Z,19.20
2022-08-28T00:48:09.014Z,19.00
2022-08-28T00:51:00.538Z,19.00
2022-08-28T00:53:30.083Z,18.90
2022-08-28T00:56:04.236Z,18.70
2022-08-28T00:58:39.371Z,18.50
2022-08-28T01:01:07.991Z,18.50
2022-08-28T01:03:37.751Z,18.50
2022-08-28T01:06:08.615Z,18.40
2022-08-28T01:08:38.870Z,18.50
2022-08-28T01:11:08.318Z,18.50
2022-08-28T01:13:39.471Z,18.60
2022-08-28T01:16:08.571Z,18.50
2022-08-28T01:18:36.773Z,18.60
2022-08-28T01:21:20.663Z,18.80
2022-08-28T01:23:57.786Z,18.50
2022-08-28T01:26:26.808Z,18.60
2022-08-28T01:28:55.008Z,18.70
2022-08-28T01:31:23.074Z,18.70
2022-08-28T01:33:51.156Z,18.50
2022-08-28T01:36:21.544Z,18.20
2022-08-28T01:38:54.060Z,18.30
2022-08-28T01:41:23.922Z,18.00
2022-08-28T01:43:53.775Z,17.90
2022-08-28T01:46:21.903Z,17.80
2022-08-28T01:48:50.517Z,17.90
2022-08-28T01:51:21.563Z,18.00
2022-08-28T01:53:52.511Z,17.90
2022-08-28T01:56:20.984Z,18.00
2022-08-28T01:58:50.473Z,18.40
2022-08-28T02:01:21.754Z,18.50
2022-08-28T02:03:53.031Z,18.50
2022-08-28T02:06:21.282Z,18.60
2022-08-28T02:08:49.945Z,18.60
2022-08-28T02:11:18.424Z,18.40
2022-08-28T02:13:46.485Z,18.20
2022-08-28T02:16:20.661Z,18.30
2022-08-28T02:18:49.066Z,18.10
2022-08-28T02:21:17.320Z,17.90
2022-08-28T02:23:46.519Z,18.00
2022-08-28T02:26:16.050Z,18.20
2022-08-28T02:28:44.382Z,18.20
2022-08-28T02:31:13.064Z,18.30
2022-08-28T02:33:45.329Z,18.30
2022-08-28T02:36:15.860Z,18.10
2022-08-28T02:38:44.826Z,18.00
2022-08-28T02:41:13.406Z,17.90
2022-08-28T02:43:42.003Z,17.70
2022-08-28T02:46:10.816Z,17.60
2022-08-28T02:48:40.456Z,17.70
2022-08-28T02:51:12.932Z,17.80
2022-08-28T02:53:41.580Z,18.00
2022-08-28T02:56:10.546Z,18.00
2022-08-28T02:58:39.501Z,18.10
2022-08-28T03:01:09.938Z,18.20
2022-08-28T03:03:38.152Z,18.00
2022-08-28T03:06:12.565Z,18.10
2022-08-28T03:08:41.682Z,18.10
2022-08-28T03:11:10.032Z,17.90
2022-08-28T03:13:38.107Z,17.50
2022-08-28T03:16:06.435Z,17.60
2022-08-28T03:18:34.621Z,17.30
2022-08-28T03:21:02.758Z,17.10
2022-08-28T03:23:32.585Z,17.40
2022-08-28T03:26:02.745Z,17.30
2022-08-28T03:28:39.397Z,17.40
2022-08-28T03:31:08.107Z,17.30
2022-08-28T03:33:36.560Z,17.30
2022-08-28T03:36:05.326Z,17.50
2022-08-28T03:38:34.904Z,17.20
2022-08-28T03:41:03.064Z,17.20
2022-08-28T03:43:31.543Z,17.10
2022-08-28T03:46:03.495Z,17.20
2022-08-28T03:48:33.987Z,17.20
2022-08-28T03:51:02.606Z,16.70
2022-08-28T03:53:31.311Z,17.30
2022-08-28T03:56:00.915Z,17.50
2022-08-28T03:58:29.714Z,17.50
2022-08-28T04:00:57.825Z,17.70
2022-08-28T04:03:25.936Z,17.40
2022-08-28T04:08:23.511Z,17.70
2022-08-28T04:10:52.377Z,17.70
2022-08-28T04:13:22.816Z,17.50
2022-08-28T04:15:58.614Z,17.90
2022-08-28T04:21:02.390Z,18.00
2022-08-28T04:25:59.205Z,17.40
2022-08-28T04:28:28.940Z,17.70
2022-08-28T04:30:57.007Z,17.80
2022-08-28T04:33:26.063Z,17.70
2022-08-28T04:35:54.758Z,17.70
2022-08-28T04:38:23.396Z,17.80
2022-08-28T04:40:51.452Z,17.90
2022-08-28T04:43:19.493Z,17.90
2022-08-28T04:45:49.028Z,17.90
2022-08-28T04:48:17.360Z,17.50
2022-08-28T04:50:47.825Z,17.20
2022-08-28T04:53:17.557Z,17.30
2022-08-28T04:55:53.507Z,17.50
2022-08-28T04:58:23.783Z,17.70
2022-08-28T05:00:54.964Z,17.60
2022-08-28T05:03:23.668Z,17.60
2022-08-28T05:05:53.412Z,17.50
2022-08-28T05:08:23.601Z,17.70
2022-08-28T05:10:53.020Z,17.70
2022-08-28T05:13:21.410Z,17.70
2022-08-28T05:15:51.513Z,17.80
2022-08-28T05:18:23.942Z,17.90
2022-08-28T05:20:54.948Z,17.80
2022-08-28T05:23:25.490Z,18.00
2022-08-28T05:25:53.961Z,18.10
2022-08-28T05:28:23.759Z,18.30
2022-08-28T05:30:52.026Z,18.50
2022-08-28T05:33:21.588Z,18.60
2022-08-28T05:35:49.667Z,18.80
2022-08-28T05:38:18.262Z,18.90
2022-08-28T05:40:49.153Z,19.10
2022-08-28T05:43:18.847Z,19.20
2022-08-28T05:45:47.003Z,19.30
2022-08-28T05:50:47.406Z,19.40
2022-08-28T05:53:17.420Z,19.50
2022-08-28T05:55:45.551Z,19.60
2022-08-28T05:58:34.755Z,19.70
2022-08-28T06:01:11.627Z,19.80
2022-08-28T06:03:41.332Z,19.90
2022-08-28T06:06:12.574Z,20.00
2022-08-28T06:08:58.234Z,20.20
2022-08-28T06:11:29.603Z,19.30
2022-08-28T06:14:01.497Z,20.20
2022-08-28T06:16:30.919Z,20.20
2022-08-28T06:18:59.468Z,20.30
2022-08-28T06:21:29.262Z,20.40
2022-08-28T06:23:58.074Z,20.40
2022-08-28T06:26:27.356Z,20.40
2022-08-28T06:31:26.493Z,20.50
2022-08-28T06:36:27.336Z,20.80
2022-08-28T06:38:59.672Z,20.80
2022-08-28T06:41:32.253Z,20.60
2022-08-28T06:44:00.389Z,20.50
2022-08-28T06:46:30.409Z,20.50
2022-08-28T06:48:58.519Z,20.60
2022-08-28T06:51:26.593Z,20.60
2022-08-28T06:53:57.451Z,20.60
2022-08-28T06:56:27.178Z,20.70
2022-08-28T06:58:57.067Z,20.80
2022-08-28T07:01:29.247Z,20.80
2022-08-28T07:04:00.745Z,20.90
2022-08-28T07:06:31.604Z,21.00
2022-08-28T07:09:01.077Z,21.20
2022-08-28T07:11:35.197Z,21.40
2022-08-28T07:14:06.565Z,21.50
2022-08-28T07:16:38.286Z,21.60
2022-08-28T07:19:07.895Z,21.60
2022-08-28T07:21:39.856Z,21.70
2022-08-28T07:24:10.660Z,21.70
2022-08-28T07:26:41.098Z,21.70
2022-08-28T07:29:11.472Z,22.00
2022-08-28T07:31:41.592Z,22.20
2022-08-28T07:34:10.620Z,22.20
2022-08-28T07:36:39.406Z,22.20
2022-08-28T07:39:10.433Z,22.30
2022-08-28T07:41:42.367Z,22.60
2022-08-28T07:44:32.150Z,22.70
2022-08-28T07:47:02.292Z,22.80
2022-08-28T07:49:31.451Z,22.90
2022-08-28T07:51:59.502Z,23.10
2022-08-28T07:54:28.997Z,23.20
2022-08-28T07:56:57.049Z,23.30
2022-08-28T07:59:25.106Z,23.60
2022-08-28T08:01:54.443Z,22.80
2022-08-28T08:04:24.440Z,24.10
2022-08-28T08:06:57.758Z,24.30
2022-08-28T08:09:27.256Z,24.30
2022-08-28T08:11:58.837Z,24.30
2022-08-28T08:14:27.063Z,24.60
2022-08-28T08:16:55.120Z,24.60
2022-08-28T08:19:23.184Z,24.80
2022-08-28T08:21:54.866Z,24.80
2022-08-28T08:24:26.399Z,25.40
2022-08-28T08:27:00.385Z,25.10
2022-08-28T08:29:31.403Z,25.20
2022-08-28T08:32:05.407Z,25.30
2022-08-28T08:34:35.332Z,25.20
2022-08-28T08:37:03.603Z,25.50
2022-08-28T08:39:32.442Z,25.60
2022-08-28T08:42:04.041Z,25.80
2022-08-28T08:44:35.531Z,25.90
2022-08-28T08:47:14.029Z,25.90
2022-08-28T08:49:48.456Z,26.10
2022-08-28T08:52:30.913Z,26.20
2022-08-28T08:55:08.660Z,26.30
2022-08-28T08:57:40.139Z,26.30
2022-08-28T09:00:15.040Z,26.50
2022-08-28T09:02:48.518Z,26.60
2022-08-28T09:05:20.992Z,26.80
2022-08-28T09:07:56.704Z,26.80
2022-08-28T09:10:26.531Z,26.90
2022-08-28T09:13:04.938Z,27.20
2022-08-28T09:15:35.325Z,27.40
2022-08-28T09:18:11.839Z,27.40
2022-08-28T09:20:42.006Z,27.40
2022-08-28T09:23:12.348Z,27.20
2022-08-28T09:25:53.937Z,27.50
2022-08-28T09:28:28.276Z,27.60
2022-08-28T09:31:03.671Z,27.80
2022-08-28T09:33:38.455Z,27.90
2022-08-28T09:36:31.616Z,28.00
2022-08-28T09:39:13.652Z,27.80
2022-08-28T09:42:07.720Z,27.90
2022-08-28T09:44:49.031Z,27.90
2022-08-28T09:47:46.177Z,28.00
2022-08-28T09:50:28.645Z,27.90
2022-08-28T09:52:59.041Z,28.00
2022-08-28T09:55:38.491Z,28.20
2022-08-28T09:58:07.719Z,28.40
2022-08-28T10:00:41.667Z,28.20
2022-08-28T10:03:17.214Z,28.00
2022-08-28T10:06:03.997Z,28.10
2022-08-28T10:08:54.985Z,28.40
2022-08-28T10:11:31.826Z,28.30
2022-08-28T10:14:08.899Z,27.90
2022-08-28T10:16:47.246Z,28.50
2022-08-28T10:19:29.461Z,29.00
2022-08-28T10:22:09.582Z,29.20
2022-08-28T10:25:03.956Z,29.00
2022-08-28T10:27:45.888Z,28.90
2022-08-28T10:30:18.338Z,29.00
2022-08-28T10:33:12.639Z,29.00
2022-08-28T10:35:50.483Z,29.10
2022-08-28T10:38:21.674Z,29.40
2022-08-28T10:40:56.799Z,29.40
2022-08-28T10:43:31.703Z,29.30
2022-08-28T10:46:04.845Z,29.20
2022-08-28T10:48:41.314Z,28.80
2022-08-28T10:51:17.421Z,29.30
2022-08-28T10:53:50.287Z,29.20
2022-08-28T10:56:21.811Z,29.30
2022-08-28T10:58:53.205Z,29.30
2022-08-28T11:01:28.450Z,29.10
2022-08-28T11:04:00.930Z,29.20
2022-08-28T11:06:34.371Z,29.00
2022-08-28T11:09:24.830Z,29.40
2022-08-28T11:12:01.092Z,29.50
2022-08-28T11:14:33.844Z,29.70
2022-08-28T11:17:06.052Z,29.30
2022-08-28T11:20:04.340Z,29.30
2022-08-28T11:22:38.421Z,29.40
2022-08-28T11:25:17.710Z,29.50
2022-08-28T11:28:28.326Z,29.20
2022-08-28T11:31:29.694Z,29.30
2022-08-28T11:33:59.256Z,29.00
2022-08-28T11:37:01.801Z,29.00
2022-08-28T11:39:30.573Z,29.00
2022-08-28T11:42:38.335Z,29.20
2022-08-28T11:45:07.392Z,29.70
2022-08-28T11:47:54.083Z,29.40
2022-08-28T11:50:33.867Z,29.50
2022-08-28T11:53:37.269Z,29.00
2022-08-28T11:56:34.262Z,28.70
2022-08-28T11:59:18.363Z,29.30
2022-08-28T12:01:47.027Z,29.20
2022-08-28T12:04:19.583Z,29.10
2022-08-28T12:06:54.453Z,29.40
2022-08-28T12:09:47.182Z,29.40
2022-08-28T12:12:50.923Z,29.40
2022-08-28T12:15:41.579Z,29.30
2022-08-28T12:18:18.055Z,29.90
2022-08-28T12:21:00.913Z,30.40
2022-08-28T12:23:39.580Z,30.40
2022-08-28T12:26:13.168Z,30.20
2022-08-28T12:28:46.580Z,30.30
2022-08-28T12:31:58.339Z,30.20
2022-08-28T12:34:35.964Z,30.20
2022-08-28T12:37:06.588Z,30.40
2022-08-28T12:39:34.975Z,30.30
2022-08-28T12:42:04.762Z,30.50
2022-08-28T12:44:33.725Z,29.80
2022-08-28T12:47:01.859Z,30.20
2022-08-28T12:49:34.377Z,29.80
2022-08-28T12:52:16.673Z,29.80
2022-08-28T12:54:46.014Z,30.30
2022-08-28T12:57:18.221Z,30.10
2022-08-28T12:59:47.899Z,30.10
2022-08-28T13:02:50.756Z,30.20
2022-08-28T13:05:39.725Z,30.70
2022-08-28T13:08:10.169Z,31.20
2022-08-28T13:10:40.199Z,30.80
2022-08-28T13:13:19.273Z,31.10
2022-08-28T13:15:51.367Z,31.00
2022-08-28T13:18:46.032Z,31.30
2022-08-28T13:21:32.689Z,31.10
2022-08-28T13:24:39.786Z,30.40
2022-08-28T13:27:17.158Z,31.40
2022-08-28T13:30:02.779Z,32.30
2022-08-28T13:32:32.599Z,32.80
2022-08-28T13:35:08.707Z,32.60
2022-08-28T13:37:45.707Z,32.60
2022-08-28T13:40:38.070Z,32.90
2022-08-28T13:43:11.006Z,32.90
2022-08-28T13:45:44.665Z,31.70
2022-08-28T13:48:14.074Z,31.80
2022-08-28T13:50:46.560Z,32.00
2022-08-28T13:53:16.815Z,32.40
2022-08-28T13:55:45.056Z,32.80
2022-08-28T13:58:13.908Z,33.10
2022-08-28T14:00:46.113Z,31.90
2022-08-28T14:03:43.392Z,32.20
2022-08-28T14:06:14.187Z,32.50
2022-08-28T14:08:44.376Z,32.20
2022-08-28T14:11:15.133Z,32.60
2022-08-28T14:13:47.028Z,32.90
2022-08-28T14:16:25.742Z,33.20
2022-08-28T14:18:54.362Z,32.40
2022-08-28T14:21:24.438Z,33.60
2022-08-28T14:23:52.508Z,34.00
2022-08-28T14:26:20.653Z,32.90
2022-08-28T14:28:48.893Z,33.40
2022-08-28T14:31:17.005Z,32.90
2022-08-28T14:33:46.476Z,33.00
2022-08-28T14:36:20.280Z,33.20
2022-08-28T14:38:50.227Z,33.10
2022-08-28T14:41:21.234Z,31.20
2022-08-28T14:43:49.504Z,31.60
2022-08-28T14:46:19.217Z,31.60
2022-08-28T14:48:49.366Z,31.20
2022-08-28T14:51:18.718Z,30.70
2022-08-28T14:53:46.738Z,30.60
2022-08-28T14:56:27.204Z,30.50
2022-08-28T14:58:55.671Z,30.50
2022-08-28T15:01:25.537Z,30.40
2022-08-28T15:04:11.047Z,30.10
2022-08-28T15:06:42.144Z,29.90
2022-08-28T15:09:10.889Z,29.50
2022-08-28T15:11:39.305Z,29.30
2022-08-28T15:14:08.736Z,29.20
2022-08-28T15:16:40.304Z,29.00
2022-08-28T15:19:12.184Z,28.80
2022-08-28T15:21:43.463Z,28.60
2022-08-28T15:24:11.744Z,28.50
2022-08-28T15:26:40.912Z,28.40
2022-08-28T15:29:12.112Z,28.20
2022-08-28T15:31:43.983Z,28.10
2022-08-28T15:34:17.227Z,28.00
2022-08-28T15:36:54.750Z,27.90
2022-08-28T15:39:41.992Z,27.70
2022-08-28T15:42:11.458Z,27.60
2022-08-28T15:44:40.019Z,27.50
2022-08-28T15:47:09.343Z,27.70
2022-08-28T15:49:44.620Z,27.40
2022-08-28T15:52:16.975Z,27.40
2022-08-28T15:54:46.073Z,27.30
2022-08-28T15:57:14.151Z,27.30
2022-08-28T15:59:50.156Z,27.20
2022-08-28T16:02:19.539Z,27.20
2022-08-28T16:04:49.246Z,27.10
2022-08-28T16:07:17.706Z,27.10
2022-08-28T16:09:46.041Z,27.00
2022-08-28T16:12:14.273Z,27.00
2022-08-28T16:14:42.395Z,26.90
2022-08-28T16:17:11.446Z,26.90
2022-08-28T16:19:40.776Z,26.80
2022-08-28T16:22:12.010Z,26.80
2022-08-28T16:24:40.242Z,26.70
2022-08-28T16:27:11.930Z,26.70
2022-08-28T16:29:43.733Z,26.70
2022-08-28T16:32:12.574Z,26.60
2022-08-28T16:34:40.987Z,26.50
2022-08-28T16:37:19.608Z,26.40
2022-08-28T16:39:49.482Z,26.40
2022-08-28T16:42:17.550Z,26.40
2022-08-28T16:44:45.723Z,26.40
2022-08-28T16:47:13.749Z,26.30
2022-08-28T16:49:41.828Z,26.30
2022-08-28T16:52:09.894Z,26.30
2022-08-28T16:54:47.447Z,26.20
2022-08-28T16:57:17.320Z,26.30
2022-08-28T16:59:45.469Z,26.20
2022-08-28T17:02:13.608Z,26.10
2022-08-28T17:04:41.973Z,26.00
2022-08-28T17:07:10.174Z,25.90
2022-08-28T17:09:39.657Z,25.80
2022-08-28T17:14:40.050Z,25.60
2022-08-28T17:17:08.117Z,25.70
2022-08-28T17:19:38.147Z,25.70
2022-08-28T17:22:24.077Z,25.70
2022-08-28T17:24:58.829Z,25.60
2022-08-28T17:27:27.030Z,25.60
2022-08-28T17:29:55.154Z,25.60
2022-08-28T17:32:23.185Z,25.50
2022-08-28T17:34:51.291Z,25.50
2022-08-28T17:37:20.672Z,25.40
2022-08-28T17:39:49.018Z,25.40
2022-08-28T17:42:18.563Z,25.40
2022-08-28T17:44:46.938Z,25.40
2022-08-28T17:49:43.687Z,24.60
2022-08-28T17:52:11.744Z,24.10
2022-08-28T17:54:39.851Z,23.90
2022-08-28T17:57:08.184Z,23.70
2022-08-28T17:59:38.208Z,23.40
2022-08-28T18:04:35.118Z,23.00
2022-08-28T18:07:03.212Z,22.80
2022-08-28T18:09:31.354Z,22.90
2022-08-28T18:11:59.459Z,22.80
2022-08-28T18:14:27.637Z,22.70
2022-08-28T18:16:57.121Z,22.60
2022-08-28T18:19:25.402Z,22.50
2022-08-28T18:21:53.713Z,22.10
2022-08-28T18:24:22.055Z,22.20
2022-08-28T18:26:50.166Z,22.30
2022-08-28T18:29:18.408Z,22.40
2022-08-28T18:31:46.729Z,22.10
2022-08-28T18:34:16.565Z,22.00
2022-08-28T18:36:44.989Z,22.00
2022-08-28T18:39:13.411Z,21.90
2022-08-28T18:41:45.364Z,21.90
2022-08-28T18:44:15.234Z,21.80
2022-08-28T18:46:45.262Z,21.80
2022-08-28T18:49:15.701Z,21.80
2022-08-28T18:51:45.327Z,22.30
2022-08-28T18:54:16.442Z,21.60
2022-08-28T18:56:45.333Z,22.00
2022-08-28T18:59:15.342Z,21.80
2022-08-28T19:01:43.738Z,21.50
2022-08-28T19:04:11.997Z,21.30
2022-08-28T19:06:42.267Z,21.60
2022-08-28T19:09:20.255Z,22.10
2022-08-28T19:11:49.200Z,21.80
2022-08-28T19:14:17.626Z,21.60
2022-08-28T19:16:47.463Z,21.40
2022-08-28T19:19:16.446Z,21.00
2022-08-28T19:21:46.266Z,21.30
2022-08-28T19:24:17.679Z,21.20
2022-08-28T19:26:46.391Z,21.20
2022-08-28T19:29:15.160Z,20.70
2022-08-28T19:31:43.770Z,21.00
2022-08-28T19:34:13.027Z,21.10
2022-08-28T19:36:42.706Z,20.90
2022-08-28T19:39:12.906Z,20.50
2022-08-28T19:41:41.366Z,20.70
2022-08-28T19:44:09.731Z,20.60
2022-08-28T19:46:39.823Z,20.70
2022-08-28T19:49:08.609Z,20.70
2022-08-28T19:51:38.184Z,20.80
2022-08-28T19:54:10.986Z,20.80
2022-08-28T19:56:40.453Z,20.80
2022-08-28T19:59:08.922Z,20.80
2022-08-28T20:01:39.650Z,20.70
2022-08-28T20:04:13.445Z,20.60
2022-08-28T20:06:41.548Z,20.50
2022-08-28T20:09:12.868Z,20.60
2022-08-28T20:11:44.984Z,20.60
2022-08-28T20:14:13.059Z,20.50
2022-08-28T20:16:45.235Z,20.40
2022-08-28T20:19:14.610Z,20.50
2022-08-28T20:21:45.153Z,20.40
2022-08-28T20:24:17.592Z,20.40
2022-08-28T20:26:47.164Z,20.30
2022-08-28T20:29:15.676Z,20.30
2022-08-28T20:31:47.252Z,20.30
2022-08-28T20:34:18.525Z,20.30
2022-08-28T20:36:46.582Z,20.30
2022-08-28T20:39:15.568Z,20.30
2022-08-28T20:41:44.671Z,20.40
2022-08-28T20:44:16.339Z,20.00
2022-08-28T20:46:51.081Z,20.30
2022-08-28T20:49:22.099Z,20.20
2022-08-28T20:52:01.357Z,20.20
2022-08-28T20:54:32.016Z,20.10
2022-08-28T20:57:03.005Z,20.10
2022-08-28T20:59:39.333Z,20.10
2022-08-28T21:02:11.720Z,20.10
2022-08-28T21:04:40.911Z,20.00
2022-08-28T21:07:09.517Z,20.00
2022-08-28T21:10:04.055Z,20.00
2022-08-28T21:12:25.743Z,20.00
2022-08-28T21:14:55.217Z,19.90
2022-08-28T21:17:29.766Z,19.90
2022-08-28T21:20:00.139Z,19.90
2022-08-28T21:22:28.611Z,20.00
2022-08-28T21:24:56.775Z,20.00
2022-08-28T21:27:24.909Z,19.90
2022-08-28T21:29:56.473Z,19.80
2022-08-28T21:32:24.559Z,19.90
2022-08-28T21:34:52.763Z,19.90
2022-08-28T21:37:21.033Z,20.00
2022-08-28T21:39:49.111Z,20.00
2022-08-28T21:42:17.184Z,20.00
2022-08-28T21:44:51.235Z,20.00
2022-08-28T21:47:23.051Z,20.00
2022-08-28T21:49:51.816Z,20.00
2022-08-28T21:52:21.068Z,19.90
2022-08-28T21:54:49.629Z,19.90
2022-08-28T21:57:18.492Z,19.80
2022-08-28T21:59:46.510Z,19.80
2022-08-28T22:02:14.601Z,19.80
2022-08-28T22:04:44.099Z,19.80
2022-08-28T22:07:14.052Z,19.80
2022-08-28T22:09:42.169Z,19.70
2022-08-28T22:12:10.857Z,19.70
2022-08-28T22:14:39.584Z,19.60
2022-08-28T22:17:11.817Z,19.70
2022-08-28T22:19:40.490Z,19.60
2022-08-28T22:22:28.389Z,19.60
2022-08-28T22:24:56.540Z,19.60
2022-08-28T22:27:24.626Z,19.50
2022-08-28T22:29:52.726Z,19.50
2022-08-28T22:32:25.467Z,19.10
2022-08-28T22:34:55.778Z,19.50
2022-08-28T22:37:25.848Z,19.50
2022-08-28T22:39:54.122Z,19.50
2022-08-28T22:42:23.091Z,19.50
2022-08-28T22:44:51.314Z,19.40
2022-08-28T22:47:19.489Z,19.50
2022-08-28T22:49:47.670Z,19.90
2022-08-28T22:52:16.439Z,19.60
2022-08-28T22:54:46.402Z,19.50
2022-08-28T22:57:15.080Z,19.50
2022-08-28T22:59:43.204Z,19.50
2022-08-28T23:02:12.176Z,19.30
2022-08-28T23:04:40.762Z,19.10
2022-08-28T23:07:08.821Z,19.20
2022-08-28T23:09:37.354Z,19.20
2022-08-28T23:12:07.590Z,19.20
2022-08-28T23:14:35.669Z,19.00
2022-08-28T23:17:03.804Z,19.00
2022-08-28T23:19:32.516Z,19.10
2022-08-28T23:22:01.242Z,19.10
2022-08-28T23:24:30.111Z,19.00
2022-08-28T23:27:09.324Z,19.00
2022-08-28T23:29:47.780Z,19.10
2022-08-28T23:32:21.683Z,19.00
2022-08-28T23:34:50.163Z,19.10
2022-08-28T23:37:18.963Z,19.20
2022-08-28T23:39:47.039Z,19.30
2022-08-28T23:42:15.757Z,19.10
2022-08-28T23:44:43.841Z,19.20
2022-08-28T23:47:15.041Z,19.20
2022-08-28T23:49:43.549Z,19.30
2022-08-28T23:52:12.185Z,19.40
2022-08-28T23:54:40.366Z,19.30
2022-08-28T23:57:09.294Z,19.30
2022-08-28T23:59:39.270Z,19.20
